createdAt,value
2022-08-22T00:00:23.175Z,21.26
2022-08-22T00:02:56.460Z,23.78
2022-08-22T00:03:04.493Z,23.64
2022-08-22T00:03:24.226Z,21.25
2022-08-22T00:06:07.429Z,21.25
2022-08-22T00:08:46.584Z,21.24
2022-08-22T00:11:17.057Z,21.25
2022-08-22T00:14:01.406Z,21.25
2022-08-22T00:16:43.035Z,21.25
2022-08-22T00:19:17.487Z,21.23
2022-08-22T00:22:02.167Z,21.22
2022-08-22T00:24:46.183Z,21.22
2022-08-22T00:27:25.788Z,21.23
2022-08-22T00:30:11.555Z,21.25
2022-08-22T00:32:43.771Z,21.27
2022-08-22T00:35:33.066Z,21.27
2022-08-22T00:38:07.418Z,21.27
2022-08-22T00:40:41.022Z,21.27
2022-08-22T00:43:27.235Z,21.28
2022-08-22T00:46:32.526Z,21.29
2022-08-22T00:49:19.233Z,21.29
2022-08-22T00:51:56.247Z,21.31
2022-08-22T00:54:54.751Z,21.34
2022-08-22T00:57:48.826Z,21.36
2022-08-22T01:00:20.799Z,21.40
2022-08-22T01:03:01.772Z,21.42
2022-08-22T01:05:32.338Z,21.46
2022-08-22T01:08:41.892Z,21.50
2022-08-22T01:11:51.032Z,21.53
2022-08-22T01:14:37.897Z,21.58
2022-08-22T01:17:35.910Z,21.60
2022-08-22T01:20:23.373Z,21.65
2022-08-22T01:23:02.137Z,21.69
2022-08-22T01:25:50.967Z,21.72
2022-08-22T01:28:40.446Z,21.75
2022-08-22T01:32:01.231Z,21.79
2022-08-22T01:34:40.954Z,21.84
2022-08-22T01:37:33.520Z,21.89
2022-08-22T01:40:07.546Z,21.93
2022-08-22T01:42:51.220Z,21.96
2022-08-22T01:45:40.487Z,22.00
2022-08-22T01:48:18.981Z,22.02
2022-08-22T01:50:56.507Z,22.05
2022-08-22T01:53:41.686Z,22.06
2022-08-22T01:56:16.374Z,22.04
2022-08-22T01:59:10.860Z,21.98
2022-08-22T02:01:57.707Z,21.88
2022-08-22T02:04:52.830Z,21.81
2022-08-22T02:07:20.508Z,21.79
2022-08-22T02:10:15.836Z,21.78
2022-08-22T02:13:03.217Z,21.80
2022-08-22T02:15:45.268Z,21.83
2022-08-22T02:18:41.120Z,21.89
2022-08-22T02:21:17.299Z,21.94
2022-08-22T02:23:55.517Z,21.99
2022-08-22T02:26:30.066Z,22.02
2022-08-22T02:29:06.969Z,22.06
2022-08-22T02:31:58.165Z,22.10
2022-08-22T02:34:42.973Z,22.14
2022-08-22T02:37:29.577Z,22.15
2022-08-22T02:40:14.794Z,22.16
2022-08-22T02:42:48.055Z,22.19
2022-08-22T02:45:22.916Z,22.21
2022-08-22T02:48:02.108Z,22.22
2022-08-22T02:50:56.977Z,22.23
2022-08-22T02:53:52.922Z,22.24
2022-08-22T02:56:31.575Z,22.28
2022-08-22T02:59:15.328Z,22.32
2022-08-22T03:01:45.992Z,22.33
2022-08-22T03:04:31.854Z,22.33
2022-08-22T03:07:14.996Z,22.34
2022-08-22T03:09:57.378Z,22.35
2022-08-22T03:13:04.182Z,22.38
2022-08-22T03:15:55.372Z,22.41
2022-08-22T03:18:28.319Z,22.41
2022-08-22T03:21:15.428Z,22.41
2022-08-22T03:23:49.282Z,22.39
2022-08-22T03:26:30.723Z,22.39
2022-08-22T03:29:06.254Z,22.39
2022-08-22T03:31:35.853Z,22.39
2022-08-22T03:34:21.553Z,22.38
2022-08-22T03:37:43.677Z,22.38
2022-08-22T03:40:34.763Z,22.39
2022-08-22T03:43:50.988Z,22.44
2022-08-22T03:46:37.232Z,22.49
2022-08-22T03:49:14.180Z,22.55
2022-08-22T03:52:19.640Z,22.61
2022-08-22T03:55:09.372Z,22.67
2022-08-22T03:57:56.078Z,22.75
2022-08-22T04:01:03.706Z,22.82
2022-08-22T04:04:04.020Z,22.88
2022-08-22T04:06:53.750Z,22.95
2022-08-22T04:09:46.309Z,23.02
2022-08-22T04:12:43.907Z,23.08
2022-08-22T04:15:29.839Z,23.15
2022-08-22T04:18:36.785Z,23.23
2022-08-22T04:21:17.033Z,23.31
2022-08-22T04:24:07.385Z,23.37
2022-08-22T04:27:02.694Z,23.42
2022-08-22T04:29:41.735Z,23.46
2022-08-22T04:32:17.546Z,23.49
2022-08-22T04:34:51.284Z,23.52
2022-08-22T04:37:46.426Z,23.55
2022-08-22T04:40:23.981Z,23.54
2022-08-22T04:42:59.579Z,23.58
2022-08-22T04:45:32.914Z,23.66
2022-08-22T04:48:08.807Z,23.77
2022-08-22T04:50:45.997Z,23.85
2022-08-22T04:53:23.330Z,23.96
2022-08-22T04:55:54.198Z,24.07
2022-08-22T04:58:55.754Z,24.17
2022-08-22T05:01:57.749Z,24.31
2022-08-22T05:04:30.085Z,24.43
2022-08-22T05:07:20.362Z,24.55
2022-08-22T05:10:12.290Z,24.70
2022-08-22T05:12:46.091Z,24.85
2022-08-22T05:15:22.965Z,24.93
2022-08-22T05:17:53.856Z,25.03
2022-08-22T05:20:26.527Z,25.13
2022-08-22T05:23:01.611Z,25.23
2022-08-22T05:25:36.438Z,25.37
2022-08-22T05:28:11.985Z,25.49
2022-08-22T05:30:40.247Z,25.61
2022-08-22T05:33:32.595Z,25.71
2022-08-22T05:36:07.845Z,25.80
2022-08-22T05:38:40.334Z,25.94
2022-08-22T05:41:11.302Z,26.10
2022-08-22T05:43:42.264Z,26.23
2022-08-22T05:46:19.085Z,26.27
2022-08-22T05:48:56.847Z,25.87
2022-08-22T05:51:48.757Z,25.48
2022-08-22T05:54:21.184Z,25.15
2022-08-22T05:57:20.254Z,25.04
2022-08-22T05:59:53.965Z,25.48
2022-08-22T06:02:26.329Z,25.87
2022-08-22T06:04:59.533Z,26.14
2022-08-22T06:07:35.472Z,26.27
2022-08-22T06:10:21.808Z,26.01
2022-08-22T06:13:05.339Z,25.70
2022-08-22T06:15:50.344Z,25.58
2022-08-22T06:18:24.154Z,25.99
2022-08-22T06:20:59.401Z,26.30
2022-08-22T06:23:30.504Z,26.17
2022-08-22T06:26:01.022Z,26.00
2022-08-22T06:28:37.504Z,25.92
2022-08-22T06:31:30.204Z,25.94
2022-08-22T06:34:03.862Z,26.30
2022-08-22T06:36:34.159Z,26.69
2022-08-22T06:39:05.658Z,26.55
2022-08-22T06:41:37.652Z,26.29
2022-08-22T06:44:07.685Z,26.08
2022-08-22T06:46:37.565Z,25.88
2022-08-22T06:49:07.333Z,25.79
2022-08-22T06:51:37.113Z,25.71
2022-08-22T06:54:08.284Z,25.70
2022-08-22T06:56:40.399Z,25.84
2022-08-22T06:59:14.019Z,26.42
2022-08-22T07:02:09.856Z,26.99
2022-08-22T07:04:38.700Z,27.05
2022-08-22T07:07:06.529Z,27.09
2022-08-22T07:09:37.371Z,27.13
2022-08-22T07:12:18.389Z,27.14
2022-08-22T07:14:51.470Z,27.15
2022-08-22T07:17:26.116Z,27.23
2022-08-22T07:20:10.882Z,27.31
2022-08-22T07:22:39.281Z,27.39
2022-08-22T07:25:13.734Z,27.54
2022-08-22T07:28:00.472Z,27.69
2022-08-22T07:30:44.311Z,27.81
2022-08-22T07:33:27.103Z,27.84
2022-08-22T07:36:04.090Z,27.90
2022-08-22T07:38:43.083Z,27.92
2022-08-22T07:41:24.669Z,28.02
2022-08-22T07:43:55.205Z,28.12
2022-08-22T07:46:32.856Z,28.27
2022-08-22T07:49:15.570Z,28.50
2022-08-22T07:51:55.723Z,28.70
2022-08-22T07:54:41.801Z,28.82
2022-08-22T07:57:22.513Z,29.11
2022-08-22T07:59:55.638Z,29.38
2022-08-22T08:02:24.555Z,29.58
2022-08-22T08:04:55.194Z,29.74
2022-08-22T08:07:26.111Z,29.75
2022-08-22T08:10:01.679Z,29.84
2022-08-22T08:12:34.208Z,29.95
2022-08-22T08:15:04.623Z,30.07
2022-08-22T08:17:34.747Z,30.21
2022-08-22T08:20:12.211Z,30.33
2022-08-22T08:22:43.674Z,30.42
2022-08-22T08:25:17.669Z,30.52
2022-08-22T08:28:04.505Z,30.50
2022-08-22T08:30:32.355Z,30.33
2022-08-22T08:33:24.625Z,30.15
2022-08-22T08:36:10.174Z,30.01
2022-08-22T08:38:45.622Z,29.82
2022-08-22T08:41:46.972Z,29.70
2022-08-22T08:44:35.852Z,29.72
2022-08-22T08:47:06.351Z,29.72
2022-08-22T08:49:42.952Z,29.72
2022-08-22T08:52:11.102Z,29.73
2022-08-22T08:54:44.992Z,29.75
2022-08-22T08:57:42.862Z,29.71
2022-08-22T09:00:16.377Z,29.62
2022-08-22T09:02:54.193Z,29.52
2022-08-22T09:05:49.879Z,29.42
2022-08-22T09:08:34.852Z,29.26
2022-08-22T09:11:28.115Z,29.21
2022-08-22T09:13:59.415Z,29.25
2022-08-22T09:16:51.294Z,29.24
2022-08-22T09:19:23.336Z,29.36
2022-08-22T09:22:19.802Z,29.42
2022-08-22T09:24:56.501Z,29.52
2022-08-22T09:27:34.174Z,29.59
2022-08-22T09:30:15.432Z,29.66
2022-08-22T09:32:48.620Z,29.72
2022-08-22T09:35:33.982Z,29.79
2022-08-22T09:38:14.381Z,29.76
2022-08-22T09:41:09.085Z,29.69
2022-08-22T09:43:44.759Z,29.51
2022-08-22T09:46:31.999Z,29.36
2022-08-22T09:49:24.115Z,29.39
2022-08-22T09:52:15.218Z,29.48
2022-08-22T09:55:04.236Z,29.61
2022-08-22T09:57:48.011Z,29.65
2022-08-22T10:00:47.922Z,29.78
2022-08-22T10:04:01.078Z,30.10
2022-08-22T10:06:39.659Z,30.35
2022-08-22T10:09:19.037Z,30.74
2022-08-22T10:12:00.118Z,32.03
2022-08-22T10:14:58.449Z,33.93
2022-08-22T10:17:32.408Z,34.57
2022-08-22T10:20:11.749Z,34.62
2022-08-22T10:23:07.248Z,34.76
2022-08-22T10:25:41.808Z,34.82
2022-08-22T10:28:22.769Z,34.75
2022-08-22T10:31:16.020Z,34.62
2022-08-22T10:33:48.466Z,34.35
2022-08-22T10:36:26.264Z,34.03
2022-08-22T10:38:55.328Z,33.79
2022-08-22T10:42:00.083Z,33.59
2022-08-22T10:44:55.981Z,33.06
2022-08-22T10:47:40.123Z,32.47
2022-08-22T10:50:20.226Z,31.99
2022-08-22T10:52:50.079Z,31.61
2022-08-22T10:55:25.395Z,31.34
2022-08-22T10:58:16.558Z,31.09
2022-08-22T11:00:58.826Z,30.87
2022-08-22T11:04:05.128Z,30.67
2022-08-22T11:06:39.065Z,30.35
2022-08-22T11:09:28.095Z,30.03
2022-08-22T11:12:35.237Z,29.80
2022-08-22T11:15:07.497Z,29.57
2022-08-22T11:18:07.208Z,29.36
2022-08-22T11:20:44.088Z,29.13
2022-08-22T11:23:27.342Z,28.96
2022-08-22T11:26:33.690Z,28.84
2022-08-22T11:29:27.405Z,28.83
2022-08-22T11:32:07.932Z,28.86
2022-08-22T11:34:38.752Z,28.90
2022-08-22T11:37:43.453Z,28.87
2022-08-22T11:40:31.458Z,28.83
2022-08-22T11:43:39.292Z,28.82
2022-08-22T11:46:21.651Z,28.80
2022-08-22T11:49:04.546Z,28.66
2022-08-22T11:51:49.472Z,28.52
2022-08-22T11:54:31.089Z,28.41
2022-08-22T11:57:10.754Z,28.34
2022-08-22T11:59:57.251Z,28.28
2022-08-22T12:02:42.273Z,28.19
2022-08-22T12:05:26.290Z,28.11
2022-08-22T12:08:09.365Z,28.07
2022-08-22T12:11:07.831Z,28.07
2022-08-22T12:14:05.145Z,28.08
2022-08-22T12:16:55.118Z,28.09
2022-08-22T12:19:33.450Z,28.07
2022-08-22T12:22:10.203Z,28.03
2022-08-22T12:25:17.122Z,27.98
2022-08-22T12:27:57.314Z,27.86
2022-08-22T12:30:49.586Z,27.82
2022-08-22T12:33:41.094Z,27.75
2022-08-22T12:36:28.976Z,27.69
2022-08-22T12:39:09.701Z,27.71
2022-08-22T12:42:06.454Z,27.79
2022-08-22T12:44:37.214Z,27.85
2022-08-22T12:47:18.190Z,27.98
2022-08-22T12:50:13.578Z,28.13
2022-08-22T12:52:54.481Z,28.22
2022-08-22T12:55:50.766Z,28.26
2022-08-22T12:58:22.988Z,28.29
2022-08-22T13:00:52.601Z,28.29
2022-08-22T13:03:29.698Z,28.26
2022-08-22T13:06:00.567Z,28.27
2022-08-22T13:08:37.115Z,28.38
2022-08-22T13:11:17.458Z,28.50
2022-08-22T13:13:57.158Z,28.62
2022-08-22T13:16:33.861Z,28.76
2022-08-22T13:19:14.542Z,28.89
2022-08-22T13:21:56.834Z,29.01
2022-08-22T13:24:38.691Z,29.09
2022-08-22T13:27:16.519Z,29.14
2022-08-22T13:29:58.922Z,29.16
2022-08-22T13:32:37.502Z,29.17
2022-08-22T13:35:09.735Z,29.13
2022-08-22T13:37:41.374Z,29.14
2022-08-22T13:40:13.597Z,29.18
2022-08-22T13:42:47.865Z,29.28
2022-08-22T13:45:36.673Z,29.40
2022-08-22T13:48:28.529Z,29.54
2022-08-22T13:51:18.755Z,29.65
2022-08-22T13:54:01.071Z,29.70
2022-08-22T13:56:39.280Z,29.77
2022-08-22T13:59:50.167Z,29.83
2022-08-22T14:02:43.293Z,29.89
2022-08-22T14:05:17.428Z,29.91
2022-08-22T14:07:50.561Z,29.88
2022-08-22T14:10:25.808Z,29.86
2022-08-22T14:12:55.465Z,29.80
2022-08-22T14:15:45.093Z,29.72
2022-08-22T14:18:30.302Z,29.64
2022-08-22T14:21:40.641Z,29.59
2022-08-22T14:24:27.207Z,29.47
2022-08-22T14:27:05.724Z,29.41
2022-08-22T14:29:50.159Z,29.39
2022-08-22T14:32:18.538Z,29.42
2022-08-22T14:34:59.636Z,29.48
2022-08-22T14:37:35.500Z,29.52
2022-08-22T14:40:29.379Z,29.53
2022-08-22T14:43:10.537Z,29.50
2022-08-22T14:45:46.779Z,29.45
2022-08-22T14:48:32.667Z,29.33
2022-08-22T14:51:08.411Z,29.25
2022-08-22T14:53:41.186Z,29.19
2022-08-22T14:56:18.194Z,29.15
2022-08-22T14:58:54.063Z,29.12
2022-08-22T15:01:26.917Z,29.08
2022-08-22T15:04:06.537Z,29.05
2022-08-22T15:06:53.737Z,29.03
2022-08-22T15:09:36.773Z,28.99
2022-08-22T15:12:29.260Z,28.94
2022-08-22T15:15:00.363Z,28.88
2022-08-22T15:17:54.582Z,28.80
2022-08-22T15:20:36.282Z,28.71
2022-08-22T15:23:20.148Z,28.67
2022-08-22T15:26:05.912Z,28.61
2022-08-22T15:28:52.264Z,28.54
2022-08-22T15:31:22.234Z,28.49
2022-08-22T15:33:51.337Z,28.47
2022-08-22T15:36:24.958Z,28.44
2022-08-22T15:38:56.627Z,28.39
2022-08-22T15:41:36.249Z,28.33
2022-08-22T15:44:32.525Z,28.29
2022-08-22T15:47:03.456Z,28.23
2022-08-22T15:49:38.049Z,28.17
2022-08-22T15:52:19.890Z,28.12
2022-08-22T15:54:53.888Z,28.07
2022-08-22T15:57:38.806Z,28.00
2022-08-22T16:00:27.998Z,27.92
2022-08-22T16:03:10.202Z,27.86
2022-08-22T16:05:55.692Z,27.79
2022-08-22T16:08:44.523Z,27.73
2022-08-22T16:11:33.482Z,27.66
2022-08-22T16:14:25.133Z,27.56
2022-08-22T16:17:01.076Z,27.46
2022-08-22T16:19:31.534Z,27.39
2022-08-22T16:22:02.161Z,27.32
2022-08-22T16:24:56.413Z,27.25
2022-08-22T16:27:26.199Z,27.19
2022-08-22T16:30:04.700Z,27.12
2022-08-22T16:32:32.600Z,27.07
2022-08-22T16:35:00.362Z,26.99
2022-08-22T16:37:44.995Z,26.93
2022-08-22T16:40:19.103Z,26.87
2022-08-22T16:42:51.847Z,26.82
2022-08-22T16:45:35.755Z,26.74
2022-08-22T16:48:21.985Z,26.65
2022-08-22T16:51:15.202Z,26.56
2022-08-22T16:54:02.292Z,26.43
2022-08-22T16:56:35.032Z,26.30
2022-08-22T16:59:23.381Z,26.18
2022-08-22T17:02:07.022Z,26.05
2022-08-22T17:04:51.004Z,25.94
2022-08-22T17:07:43.021Z,25.82
2022-08-22T17:10:41.340Z,25.70
2022-08-22T17:13:43.078Z,25.58
2022-08-22T17:16:24.044Z,25.45
2022-08-22T17:19:13.276Z,25.47
2022-08-22T17:21:53.540Z,25.96
2022-08-22T17:24:45.871Z,26.35
2022-08-22T17:27:31.941Z,26.64
2022-08-22T17:30:02.743Z,26.84
2022-08-22T17:32:33.604Z,26.87
2022-08-22T17:35:24.555Z,26.51
2022-08-22T17:38:05.411Z,26.09
2022-08-22T17:41:10.412Z,25.91
2022-08-22T17:44:01.510Z,26.27
2022-08-22T17:46:49.980Z,26.51
2022-08-22T17:49:47.782Z,26.62
2022-08-22T17:52:42.589Z,26.68
2022-08-22T17:55:20.168Z,26.72
2022-08-22T17:57:59.920Z,26.73
2022-08-22T18:00:35.116Z,26.74
2022-08-22T18:03:23.759Z,26.75
2022-08-22T18:05:53.802Z,26.76
2022-08-22T18:11:42.653Z,26.77
2022-08-22T18:14:21.786Z,26.76
2022-08-22T18:16:54.455Z,26.74
2022-08-22T18:19:42.471Z,26.70
2022-08-22T18:22:20.022Z,26.64
2022-08-22T18:24:59.122Z,26.60
2022-08-22T18:27:49.461Z,26.57
2022-08-22T18:30:19.814Z,26.55
2022-08-22T18:32:56.053Z,26.53
2022-08-22T18:35:48.568Z,26.49
2022-08-22T18:38:50.652Z,26.45
2022-08-22T18:41:37.010Z,26.38
2022-08-22T18:44:27.766Z,25.98
2022-08-22T18:47:01.423Z,25.47
2022-08-22T18:49:39.466Z,25.51
2022-08-22T18:52:21.080Z,25.61
2022-08-22T18:55:23.170Z,25.64
2022-08-22T18:58:34.479Z,25.65
2022-08-22T19:01:23.616Z,25.62
2022-08-22T19:04:30.816Z,25.61
2022-08-22T19:07:21.371Z,25.61
2022-08-22T19:09:55.862Z,25.62
2022-08-22T19:12:35.752Z,25.61
2022-08-22T19:15:38.647Z,25.59
2022-08-22T19:18:24.983Z,25.55
2022-08-22T19:21:37.607Z,25.52
2022-08-22T19:24:26.011Z,25.50
2022-08-22T19:27:19.879Z,25.48
2022-08-22T19:29:47.605Z,25.45
2022-08-22T19:32:46.990Z,25.44
2022-08-22T19:35:19.661Z,25.40
2022-08-22T19:38:07.861Z,25.39
2022-08-22T19:40:44.797Z,25.37
2022-08-22T19:43:30.636Z,25.37
2022-08-22T19:46:00.833Z,25.37
2022-08-22T19:48:32.656Z,25.37
2022-08-22T19:51:26.147Z,25.33
2022-08-22T19:54:16.236Z,25.26
2022-08-22T19:57:11.396Z,25.22
2022-08-22T19:59:50.852Z,25.18
2022-08-22T20:02:44.926Z,25.13
2022-08-22T20:05:28.816Z,25.08
2022-08-22T20:08:24.929Z,25.04
2022-08-22T20:11:13.859Z,24.98
2022-08-22T20:13:41.836Z,24.93
2022-08-22T20:16:13.586Z,24.89
2022-08-22T20:19:07.690Z,24.82
2022-08-22T20:21:59.021Z,24.71
2022-08-22T20:24:43.728Z,24.62
2022-08-22T20:27:34.776Z,24.56
2022-08-22T20:30:15.248Z,24.49
2022-08-22T20:32:47.684Z,24.43
2022-08-22T20:35:22.165Z,24.37
2022-08-22T20:38:16.226Z,24.31
2022-08-22T20:41:21.066Z,24.26
2022-08-22T20:44:01.119Z,24.20
2022-08-22T20:46:47.083Z,24.16
2022-08-22T20:49:25.929Z,24.10
2022-08-22T20:52:09.782Z,24.05
2022-08-22T20:54:41.018Z,23.98
2022-08-22T20:57:16.213Z,23.94
2022-08-22T20:59:58.846Z,23.90
2022-08-22T21:02:41.756Z,23.87
2022-08-22T21:05:12.667Z,23.86
2022-08-22T21:07:45.879Z,23.83
2022-08-22T21:10:43.647Z,23.76
2022-08-22T21:13:22.239Z,23.70
2022-08-22T21:15:55.005Z,23.65
2022-08-22T21:18:32.735Z,23.58
2022-08-22T21:21:17.205Z,23.53
2022-08-22T21:23:48.248Z,23.51
2022-08-22T21:26:22.239Z,23.50
2022-08-22T21:28:50.259Z,23.51
2022-08-22T21:31:21.677Z,23.52
2022-08-22T21:33:52.017Z,23.53
2022-08-22T21:36:29.175Z,23.55
2022-08-22T21:39:12.232Z,23.56
2022-08-22T21:41:44.919Z,23.55
2022-08-22T21:44:30.978Z,23.55
2022-08-22T21:47:31.659Z,23.53
2022-08-22T21:50:05.673Z,23.51
2022-08-22T21:52:36.623Z,23.49
2022-08-22T21:55:35.438Z,23.44
2022-08-22T21:58:06.273Z,23.39
2022-08-22T22:00:57.406Z,23.35
2022-08-22T22:03:34.936Z,23.32
2022-08-22T22:06:05.764Z,23.28
2022-08-22T22:08:33.979Z,23.23
2022-08-22T22:11:12.449Z,23.19
2022-08-22T22:13:41.140Z,23.11
2022-08-22T22:16:09.587Z,23.04
2022-08-22T22:18:38.183Z,22.95
2022-08-22T22:21:06.191Z,22.92
2022-08-22T22:23:34.303Z,22.89
2022-08-22T22:26:04.524Z,22.86
2022-08-22T22:28:44.807Z,22.83
2022-08-22T22:31:13.490Z,22.80
2022-08-22T22:33:42.433Z,22.77
2022-08-22T22:36:23.169Z,22.73
2022-08-22T22:38:52.055Z,22.67
2022-08-22T22:41:23.368Z,22.58
2022-08-22T22:43:55.254Z,22.49
2022-08-22T22:46:24.189Z,22.40
2022-08-22T22:48:51.965Z,22.35
2022-08-22T22:51:20.006Z,22.33
2022-08-22T22:53:47.956Z,22.28
2022-08-22T22:56:21.680Z,22.26
2022-08-22T22:58:59.083Z,22.23
2022-08-22T23:01:29.067Z,22.23
2022-08-22T23:03:58.959Z,22.22
2022-08-22T23:06:35.851Z,22.22
2022-08-22T23:09:03.806Z,22.21
2022-08-22T23:11:32.377Z,22.19
2022-08-22T23:14:01.556Z,22.17
2022-08-22T23:16:35.061Z,22.16
2022-08-22T23:19:12.656Z,22.14
2022-08-22T23:21:41.137Z,22.12
2022-08-22T23:24:09.663Z,22.10
2022-08-22T23:26:38.002Z,22.08
2022-08-22T23:29:06.178Z,22.04
2022-08-22T23:31:37.742Z,22.01
2022-08-22T23:34:11.259Z,21.96
2022-08-22T23:36:41.882Z,21.92
2022-08-22T23:39:10.142Z,21.90
2022-08-22T23:41:40.462Z,21.88
2022-08-22T23:44:13.426Z,21.87
2022-08-22T23:46:43.045Z,21.86
2022-08-22T23:49:11.404Z,21.84
2022-08-22T23:51:39.637Z,21.81
2022-08-22T23:54:08.308Z,21.78
2022-08-22T23:56:41.830Z,21.75
2022-08-22T23:59:13.343Z,21.73
